Time;durP1;ratioP1;P1;durP2;ratioP2;P2;SDS_P1;SDS_P2;PMS_P1;PMS_P2;Temp;Humidity;BMP_temperature;BMP_pressure;BME280_temperature;BME280_humidity;BME280_pressure;Samples;Min_cycle;Max_cycle;Signal;HPM_P1;HPM_P2
2021/12/13 00:02:34;;;;;;;0.68;0.68;;;;;;;6.77;100.00;101542.81;4991144;28;20038;-88
2021/12/13 00:05:08;;;;;;;0.73;0.73;;;;;;;6.84;100.00;101551.63;4986886;28;20054;-86
2021/12/13 00:07:52;;;;;;;0.73;0.73;;;;;;;6.79;100.00;101549.63;5004025;28;20494;-86
2021/12/13 00:10:35;;;;;;;0.40;0.40;;;;;;;6.75;100.00;101544.91;4988461;28;20050;-84
2021/12/13 00:13:13;;;;;;;1.83;1.40;;;;;;;6.76;100.00;101554.69;5006241;28;20047;-87
2021/12/13 00:15:49;;;;;;;1.33;1.13;;;;;;;6.79;100.00;101543.38;4993210;28;20043;-86
2021/12/13 00:18:27;;;;;;;1.25;1.10;;;;;;;6.76;100.00;101541.97;4993044;28;20055;-86
2021/12/13 00:21:07;;;;;;;1.08;0.98;;;;;;;6.67;100.00;101529.84;4992054;28;20070;-85
2021/12/13 00:23:43;;;;;;;1.00;0.80;;;;;;;6.69;100.00;101541.25;4993279;28;20403;-86
2021/12/13 00:26:22;;;;;;;0.88;0.88;;;;;;;6.71;100.00;101544.56;4992277;28;20045;-87
2021/12/13 00:28:56;;;;;;;0.68;0.68;;;;;;;6.75;100.00;101548.47;4989523;28;20053;-85
2021/12/13 00:31:44;;;;;;;1.00;0.60;;;;;;;6.81;100.00;101552.91;4991021;28;20052;-87
2021/12/13 00:34:33;;;;;;;0.68;0.52;;;;;;;6.77;100.00;101542.81;4989047;28;20058;-84
2021/12/13 00:37:10;;;;;;;1.23;1.00;;;;;;;6.66;100.00;101546.28;4990931;28;20506;-87
2021/12/13 00:39:48;;;;;;;1.05;0.95;;;;;;;6.75;100.00;101553.03;4993816;28;20054;-86
2021/12/13 00:42:21;;;;;;;1.88;1.30;;;;;;;6.72;100.00;101553.50;4992348;28;20057;-86
2021/12/13 00:44:53;;;;;;;1.65;1.25;;;;;;;6.71;100.00;101549.97;4988050;28;20050;-87
2021/12/13 00:47:24;;;;;;;1.02;0.73;;;;;;;6.69;100.00;101552.06;4989395;28;20053;-86
2021/12/13 00:50:03;;;;;;;2.28;1.40;;;;;;;6.62;100.00;101541.34;4991458;28;20065;-85
2021/12/13 00:52:38;;;;;;;1.23;0.95;;;;;;;6.70;100.00;101545.63;4992927;28;20050;-85
2021/12/13 00:55:14;;;;;;;2.17;1.23;;;;;;;6.63;100.00;101553.84;4991443;28;20057;-87
2021/12/13 00:57:50;;;;;;;1.40;0.70;;;;;;;6.70;100.00;101558.28;4990446;28;20045;-86
2021/12/13 01:00:26;;;;;;;1.83;1.00;;;;;;;6.67;100.00;101562.31;4988544;28;20050;-85
2021/12/13 01:02:59;;;;;;;1.42;0.98;;;;;;;6.64;100.00;101571.72;4987314;28;20498;-86
2021/12/13 01:06:12;;;;;;;1.70;1.00;;;;;;;6.64;100.00;101571.72;4988695;28;20050;-86
2021/12/13 01:09:48;;;;;;;2.33;1.48;;;;;;;6.60;100.00;101567.81;4980174;28;20061;-87
2021/12/13 01:12:18;;;;;;;2.25;1.33;;;;;;;6.56;100.00;101571.19;4992075;28;20042;-86
2021/12/13 01:15:00;;;;;;;2.05;1.30;;;;;;;6.59;100.00;101573.47;4992353;28;20399;-85
2021/12/13 01:17:50;;;;;;;2.28;1.50;;;;;;;6.56;100.00;101576.59;4985169;28;20309;-86
2021/12/13 01:20:29;;;;;;;1.45;0.98;;;;;;;6.58;100.00;101588.03;4999996;28;20058;-86
2021/12/13 01:23:05;;;;;;;1.83;1.13;;;;;;;6.59;100.00;101595.91;4990284;28;20502;-86
2021/12/13 01:25:44;;;;;;;2.28;1.50;;;;;;;6.53;100.00;101585.19;4997940;28;20062;-85
2021/12/13 01:28:23;;;;;;;0.80;0.75;;;;;;;6.61;100.00;101598.38;4990361;28;20438;-86
2021/12/13 01:30:56;;;;;;;3.33;1.77;;;;;;;6.64;100.00;101604.16;4989010;28;20053;-85
2021/12/13 01:33:26;;;;;;;2.15;1.10;;;;;;;6.61;100.00;101598.38;5002168;28;20054;-85
2021/12/13 01:36:04;;;;;;;2.30;1.67;;;;;;;6.60;100.00;101599.44;4993710;28;20514;-84
2021/12/13 01:38:45;;;;;;;2.30;1.02;;;;;;;6.59;100.00;101593.22;4987308;28;21442;-84
2021/12/13 01:41:22;;;;;;;3.45;2.10;;;;;;;6.60;100.00;101604.84;4990016;28;20043;-86
2021/12/13 01:43:59;;;;;;;1.35;0.85;;;;;;;6.63;100.00;101605.22;4987161;28;20411;-86
2021/12/13 01:46:37;;;;;;;2.08;1.45;;;;;;;6.61;100.00;101609.22;4990800;28;20077;-86
2021/12/13 01:49:12;;;;;;;2.17;1.65;;;;;;;6.61;100.00;101612.72;4983539;28;20522;-84
2021/12/13 01:51:41;;;;;;;1.73;1.30;;;;;;;6.61;100.00;101614.63;4987325;28;20050;-87
2021/12/13 01:54:14;;;;;;;0.50;0.50;;;;;;;6.62;100.00;101610.88;4989955;28;20050;-85
2021/12/13 01:56:54;;;;;;;;;;;;;;;6.61;100.00;101620.84;4989018;28;20061;-87
2021/12/13 01:59:50;;;;;;;1.20;0.68;;;;;;;6.62;100.00;101613.56;4985558;28;19929;-85
2021/12/13 02:02:29;;;;;;;0.35;0.35;;;;;;;6.64;100.00;101606.88;4993166;28;20042;-86
2021/12/13 02:05:08;;;;;;;0.60;0.60;;;;;;;6.63;100.00;101615.22;4989087;28;20038;-87
2021/12/13 02:07:45;;;;;;;1.00;0.90;;;;;;;6.63;100.00;101605.22;4991964;28;20072;-85
2021/12/13 02:10:20;;;;;;;0.90;0.80;;;;;;;6.62;100.00;101600.84;4988263;28;20045;-85
2021/12/13 02:12:58;;;;;;;0.40;0.40;;;;;;;6.61;100.00;101601.91;4986176;28;20058;-87
2021/12/13 02:18:32;;;;;;;0.50;0.50;;;;;;;6.60;100.00;101599.44;4991049;28;20053;-86
2021/12/13 02:21:08;;;;;;;1.25;1.08;;;;;;;6.56;100.00;101592.84;4987236;28;20080;-85
2021/12/13 02:23:47;;;;;;;0.50;0.50;;;;;;;6.58;100.00;101596.16;4988795;28;20042;-86
2021/12/13 02:26:21;;;;;;;0.32;0.32;;;;;;;6.53;100.00;101599.56;4989561;28;20072;-86
2021/12/13 02:29:01;;;;;;;0.43;0.43;;;;;;;6.54;100.00;101600.38;4990294;28;20046;-87
2021/12/13 02:31:33;;;;;;;0.32;0.32;;;;;;;6.54;100.00;101605.78;4986430;28;20045;-87
2021/12/13 02:34:09;;;;;;;0.40;0.40;;;;;;;6.55;100.00;101616.38;4995774;28;20049;-87
2021/12/13 02:36:45;;;;;;;0.55;0.55;;;;;;;6.52;100.00;101605.16;4988937;28;20049;-85
2021/12/13 02:39:18;;;;;;;1.42;1.13;;;;;;;6.52;100.00;101611.41;4989455;28;20065;-86
2021/12/13 02:41:52;;;;;;;;;;;;;;;6.51;100.00;101620.59;4986015;28;20051;-86
2021/12/13 02:44:30;;;;;;;0.70;0.70;;;;;;;6.49;100.00;101619.16;4990567;28;19926;-86
2021/12/13 02:47:07;;;;;;;0.93;0.85;;;;;;;6.47;100.00;101617.50;4986502;28;20042;-86
2021/12/13 02:49:42;;;;;;;1.40;1.10;;;;;;;6.44;100.00;101615.25;4983848;28;20496;-84
2021/12/13 02:52:18;;;;;;;1.40;1.20;;;;;;;6.44;100.00;101609.84;4991341;28;20049;-86
2021/12/13 02:54:55;;;;;;;0.60;0.60;;;;;;;6.47;100.00;101614.78;4990378;28;20057;-86
2021/12/13 02:57:32;;;;;;;0.68;0.68;;;;;;;6.41;100.00;101612.22;4989630;28;20046;-87
2021/12/13 03:00:12;;;;;;;0.77;0.75;;;;;;;6.45;100.00;101622.31;4988000;28;20061;-87
2021/12/13 03:02:49;;;;;;;0.80;0.80;;;;;;;6.46;100.00;101623.97;4983769;28;20046;-86
2021/12/13 03:05:27;;;;;;;1.00;0.90;;;;;;;6.47;100.00;101620.19;4988298;28;20050;-86
2021/12/13 03:07:59;;;;;;;0.30;0.30;;;;;;;6.48;100.00;101623.75;4990771;28;20042;-86
2021/12/13 03:10:39;;;;;;;0.60;0.60;;;;;;;6.50;100.00;101616.22;4988733;28;20050;-87
2021/12/13 03:13:12;;;;;;;0.47;0.47;;;;;;;6.54;100.00;101619.31;4992426;28;20057;-85
2021/12/13 03:15:50;;;;;;;0.50;0.50;;;;;;;6.54;100.00;101622.00;4988011;28;20049;-87
2021/12/13 03:18:23;;;;;;;0.63;0.63;;;;;;;6.56;100.00;101625.28;4985342;28;20058;-85
2021/12/13 03:21:20;;;;;;;0.43;0.43;;;;;;;6.63;100.00;101626.03;4987934;28;20122;-87
2021/12/13 03:24:01;;;;;;;0.60;0.60;;;;;;;6.62;100.00;101629.78;5000774;28;20058;-86
2021/12/13 03:26:58;;;;;;;0.30;0.30;;;;;;;6.68;100.00;101628.06;4989144;28;20047;-85
2021/12/13 03:29:46;;;;;;;0.40;0.40;;;;;;;6.68;100.00;101631.56;4986889;28;20408;-85
2021/12/13 03:32:16;;;;;;;0.40;0.40;;;;;;;6.71;100.00;101633.84;5020328;28;20054;-86
2021/12/13 03:35:03;;;;;;;0.50;0.50;;;;;;;6.69;100.00;101627.00;4987555;28;20764;-84
2021/12/13 03:37:33;;;;;;;0.30;0.30;;;;;;;6.72;100.00;101621.94;4988067;28;20050;-85
2021/12/13 03:40:08;;;;;;;0.30;0.30;;;;;;;6.73;100.00;101631.72;4987620;28;20069;-86
2021/12/13 03:42:47;;;;;;;0.40;0.40;;;;;;;6.75;100.00;101632.31;4986790;28;20055;-84
2021/12/13 03:45:21;;;;;;;0.38;0.38;;;;;;;6.75;100.00;101636.88;4989717;28;20058;-87
2021/12/13 03:47:58;;;;;;;0.30;0.30;;;;;;;6.73;100.00;101620.88;4996560;28;20486;-86
2021/12/13 03:50:34;;;;;;;0.20;0.20;;;;;;;6.77;100.00;101624.78;4990924;28;20411;-85
2021/12/13 03:53:16;;;;;;;0.40;0.40;;;;;;;6.83;100.00;101630.34;4995803;28;20050;-86
2021/12/13 03:55:54;;;;;;;0.30;0.30;;;;;;;6.85;100.00;101625.50;4991299;28;20046;-86
2021/12/13 03:58:30;;;;;;;;;;;;;;;6.84;100.00;101635.50;4994171;28;20114;-86
2021/12/13 04:01:01;;;;;;;0.40;0.40;;;;;;;6.84;100.00;101629.28;4991777;28;20533;-84
2021/12/13 04:03:35;;;;;;;0.30;0.30;;;;;;;6.83;100.00;101630.34;4992612;28;20505;-86
2021/12/13 04:06:09;;;;;;;0.30;0.30;;;;;;;6.85;100.00;101636.31;4993363;28;20073;-84
2021/12/13 04:08:45;;;;;;;0.30;0.30;;;;;;;6.88;100.00;101641.28;4991295;28;20061;-85
2021/12/13 04:11:18;;;;;;;0.30;0.30;;;;;;;6.92;100.00;101637.88;4994836;28;20549;-84
2021/12/13 04:14:00;;;;;;;0.30;0.30;;;;;;;6.95;100.00;101636.59;4989474;28;20046;-84
2021/12/13 04:16:48;;;;;;;0.30;0.30;;;;;;;6.91;100.00;101643.53;4987143;28;20054;-85
2021/12/13 04:19:24;;;;;;;0.30;0.30;;;;;;;6.88;100.00;101633.19;4992602;28;20042;-86
2021/12/13 04:21:59;;;;;;;0.30;0.30;;;;;;;7.01;100.00;101645.66;4989170;28;20047;-86
2021/12/13 04:24:38;;;;;;;0.20;0.20;;;;;;;7.05;100.00;101650.38;4991104;28;20046;-86
2021/12/13 04:27:18;;;;;;;0.30;0.30;;;;;;;7.07;100.00;101642.88;4988923;28;20054;-86
2021/12/13 04:29:56;;;;;;;0.22;0.22;;;;;;;7.04;100.00;101647.91;4995037;28;20387;-87
2021/12/13 04:32:33;;;;;;;0.30;0.30;;;;;;;7.02;100.00;101647.31;4990372;28;20515;-84
2021/12/13 04:35:09;;;;;;;0.40;0.40;;;;;;;7.10;100.00;101655.94;4990058;28;20547;-86
2021/12/13 04:37:46;;;;;;;0.40;0.40;;;;;;;7.12;100.00;101651.09;4987987;28;20055;-86
2021/12/13 04:40:23;;;;;;;0.35;0.35;;;;;;;7.13;100.00;101641.91;4991138;28;20050;-87
2021/12/13 04:43:02;;;;;;;0.30;0.30;;;;;;;7.18;100.00;101656.63;4988915;28;20046;-87
2021/12/13 04:45:39;;;;;;;0.30;0.30;;;;;;;7.11;100.00;101660.28;4995647;28;20277;-84
2021/12/13 04:48:15;;;;;;;0.30;0.30;;;;;;;7.15;100.00;101663.34;4990454;28;20050;-86
2021/12/13 04:50:50;;;;;;;0.20;0.20;;;;;;;7.17;100.00;101668.53;4993727;28;20050;-85
2021/12/13 04:53:25;;;;;;;0.30;0.30;;;;;;;7.19;100.00;101667.22;4988996;28;20066;-85
2021/12/13 04:56:05;;;;;;;0.20;0.20;;;;;;;7.19;100.00;101671.84;4994166;28;20042;-86
2021/12/13 04:58:39;;;;;;;0.20;0.20;;;;;;;7.19;100.00;101669.13;4987757;28;20046;-85
2021/12/13 05:01:16;;;;;;;0.30;0.30;;;;;;;7.26;100.00;101672.53;4990876;28;20041;-85
2021/12/13 05:03:53;;;;;;;0.30;0.30;;;;;;;7.28;100.00;101675.84;4989700;28;20054;-86
2021/12/13 05:06:30;;;;;;;;;;;;;;;7.29;100.00;101672.91;4994032;28;20046;-86
2021/12/13 05:09:06;;;;;;;0.30;0.30;;;;;;;7.35;100.00;101676.56;4992469;28;19925;-86
2021/12/13 05:11:43;;;;;;;0.35;0.35;;;;;;;7.37;100.00;101670.91;4993988;28;20065;-86
2021/12/13 05:14:17;;;;;;;0.30;0.30;;;;;;;7.24;100.00;101670.06;4990144;28;20478;-86
2021/12/13 05:16:57;;;;;;;0.30;0.30;;;;;;;7.43;100.00;101687.06;5006225;28;20042;-86
2021/12/13 05:19:34;;;;;;;0.40;0.40;;;;;;;7.36;100.00;101683.66;4990879;28;20038;-87
2021/12/13 05:22:10;;;;;;;0.40;0.40;;;;;;;7.42;100.00;101679.97;4990166;28;20046;-87
2021/12/13 05:24:47;;;;;;;0.40;0.40;;;;;;;7.46;100.00;101677.66;4987948;28;20046;-85
2021/12/13 05:27:32;;;;;;;0.40;0.40;;;;;;;7.43;100.00;101678.94;4992699;28;20058;-87
2021/12/13 05:30:11;;;;;;;0.55;0.55;;;;;;;7.39;100.00;101690.44;4991030;28;20074;-85
2021/12/13 05:32:49;;;;;;;0.95;0.50;;;;;;;7.53;100.00;101691.91;4992167;28;20054;-86
2021/12/13 05:35:27;;;;;;;0.55;0.55;;;;;;;7.45;100.00;101695.75;4988834;28;20065;-87
2021/12/13 05:38:04;;;;;;;0.98;0.63;;;;;;;7.49;100.00;101696.13;4988471;28;20042;-85
2021/12/13 05:40:41;;;;;;;0.73;0.52;;;;;;;7.44;100.00;101693.28;4989693;28;20053;-87
2021/12/13 05:43:19;;;;;;;1.05;0.60;;;;;;;7.47;100.00;101690.94;4995195;28;20054;-86
2021/12/13 05:45:57;;;;;;;0.55;0.47;;;;;;;7.45;100.00;101698.47;4989384;28;20049;-85
2021/12/13 05:48:44;;;;;;;0.60;0.47;;;;;;;7.48;100.00;101700.72;4989453;28;20050;-87
2021/12/13 05:51:29;;;;;;;1.05;0.85;;;;;;;7.47;100.00;101707.19;4989325;28;20399;-85
2021/12/13 05:54:06;;;;;;;0.50;0.50;;;;;;;7.64;100.00;101706.50;4994910;28;20402;-86
2021/12/13 05:56:43;;;;;;;1.33;1.00;;;;;;;7.56;100.00;101701.44;4994282;28;20499;-85
2021/12/13 05:59:22;;;;;;;0.60;0.60;;;;;;;7.55;100.00;101713.31;4990927;28;20372;-87
2021/12/13 06:02:06;;;;;;;0.82;0.55;;;;;;;7.58;100.00;101704.72;4989365;28;20050;-85
2021/12/13 06:04:45;;;;;;;0.77;0.57;;;;;;;7.60;100.00;101716.16;4992937;28;20057;-86
2021/12/13 06:07:23;;;;;;;0.90;0.57;;;;;;;7.62;100.00;101708.63;4995253;28;20097;-86
2021/12/13 06:09:57;;;;;;;0.60;0.60;;;;;;;7.71;100.00;101711.81;4991664;28;20069;-86
2021/12/13 06:12:37;;;;;;;0.68;0.52;;;;;;;7.69;100.00;101711.22;4979356;28;20057;-86
2021/12/13 06:15:24;;;;;;;0.40;0.40;;;;;;;7.68;100.00;101713.13;4990160;28;20054;-83
2021/12/13 06:17:59;;;;;;;0.30;0.30;;;;;;;7.74;100.00;101724.88;4991226;28;20050;-84
2021/12/13 06:20:39;;;;;;;0.40;0.40;;;;;;;7.79;100.00;101716.88;4993524;28;20041;-87
2021/12/13 06:23:16;;;;;;;0.65;0.65;;;;;;;7.74;100.00;101719.47;4984618;28;20439;-85
2021/12/13 06:25:55;;;;;;;0.40;0.40;;;;;;;7.75;100.00;101726.53;4989919;28;20046;-85
2021/12/13 06:28:32;;;;;;;0.32;0.32;;;;;;;7.72;100.00;101727.00;4989382;28;20415;-84
2021/12/13 06:31:08;;;;;;;0.20;0.20;;;;;;;7.77;100.00;101725.22;4993544;28;20043;-85
2021/12/13 06:33:47;;;;;;;0.30;0.30;;;;;;;7.71;100.00;101728.88;4991479;28;20064;-88
2021/12/13 06:36:29;;;;;;;0.40;0.40;;;;;;;7.77;100.00;101732.53;4990742;28;20100;-87
2021/12/13 06:39:07;;;;;;;0.30;0.30;;;;;;;7.75;100.00;101731.97;5003315;28;20053;-85
2021/12/13 06:41:39;;;;;;;0.40;0.40;;;;;;;7.84;100.00;101730.53;4987002;28;20053;-84
2021/12/13 06:44:21;;;;;;;0.53;0.30;;;;;;;7.80;100.00;101726.66;4982981;28;20046;-85
2021/12/13 06:47:00;;;;;;;0.50;0.40;;;;;;;7.80;100.00;101732.91;4986799;28;20312;-86
2021/12/13 06:49:37;;;;;;;0.30;0.30;;;;;;;7.81;100.00;101733.72;4989457;28;20050;-86
2021/12/13 06:52:10;;;;;;;0.30;0.30;;;;;;;7.88;100.00;101739.84;4987420;28;20054;-86
2021/12/13 06:54:40;;;;;;;0.43;0.43;;;;;;;7.87;100.00;101742.78;4988553;28;20340;-85
2021/12/13 06:57:18;;;;;;;0.43;0.43;;;;;;;7.78;100.00;101743.16;4989327;28;20042;-83
2021/12/13 06:59:52;;;;;;;;;;;;;;;7.96;100.00;101746.81;4985367;28;20057;-87
2021/12/13 07:02:23;;;;;;;0.30;0.30;;;;;;;7.92;100.00;101746.44;4988943;28;19926;-85
2021/12/13 07:05:05;;;;;;;0.30;0.30;;;;;;;7.96;100.00;101744.91;4987992;28;20046;-87
2021/12/13 07:07:51;;;;;;;0.30;0.30;;;;;;;7.95;100.00;101753.28;4988713;28;20055;-90
2021/12/13 07:10:27;;;;;;;0.30;0.30;;;;;;;7.93;100.00;101763.56;4980415;28;20054;-87
2021/12/13 07:13:04;;;;;;;0.30;0.30;;;;;;;7.93;100.00;101756.25;4995707;28;20050;-86
2021/12/13 07:15:45;;;;;;;0.30;0.30;;;;;;;7.92;100.00;101761.91;4990055;28;20050;-88
2021/12/13 07:18:18;;;;;;;0.35;0.35;;;;;;;7.94;100.00;101762.47;4987454;28;20042;-83
2021/12/13 07:20:56;;;;;;;0.40;0.40;;;;;;;8.02;100.00;101772.97;4985544;28;20411;-87
2021/12/13 07:23:52;;;;;;;0.40;0.40;;;;;;;7.89;100.00;101773.22;4992236;28;20414;-86
2021/12/13 07:26:31;;;;;;;0.40;0.40;;;;;;;7.94;100.00;101782.28;4992573;28;20053;-86
2021/12/13 07:29:11;;;;;;;0.30;0.30;;;;;;;8.00;100.00;101770.50;4994794;28;20051;-87
2021/12/13 07:31:46;;;;;;;0.40;0.40;;;;;;;7.96;100.00;101780.16;4991352;28;20045;-86
2021/12/13 07:34:20;;;;;;;0.30;0.30;;;;;;;8.03;100.00;101782.75;4992110;28;20058;-86
2021/12/13 07:36:56;;;;;;;0.32;0.32;;;;;;;7.98;100.00;101794.31;4994097;28;20054;-89
2021/12/13 07:39:32;;;;;;;0.40;0.40;;;;;;;8.00;100.00;101791.38;4989158;28;20054;-87
2021/12/13 07:42:09;;;;;;;0.30;0.30;;;;;;;8.15;100.00;101790.91;4993657;28;20471;-87
2021/12/13 07:44:45;;;;;;;0.40;0.40;;;;;;;8.08;100.00;101798.31;4993157;28;20376;-86
2021/12/13 07:47:23;;;;;;;0.25;0.25;;;;;;;8.07;100.00;101800.19;4987067;28;20043;-82
2021/12/13 07:49:59;;;;;;;0.50;0.50;;;;;;;8.10;100.00;101797.00;4997801;28;20046;-86
2021/12/13 07:52:35;;;;;;;0.40;0.40;;;;;;;8.07;100.00;101791.25;4991755;28;20038;-86
2021/12/13 07:55:16;;;;;;;0.30;0.30;;;;;;;8.21;100.00;101794.53;4993531;28;20041;-87
2021/12/13 07:57:51;;;;;;;0.38;0.38;;;;;;;8.12;100.00;101810.31;4993837;28;20054;-87
2021/12/13 08:00:23;;;;;;;0.40;0.40;;;;;;;8.10;100.00;101796.19;4997874;28;20042;-87
2021/12/13 08:02:58;;;;;;;;;;;;;;;8.04;100.00;101803.38;4991552;28;20073;-86
2021/12/13 08:05:38;;;;;;;0.30;0.30;;;;;;;8.11;100.00;101804.09;4993172;28;19922;-85
2021/12/13 08:08:15;;;;;;;0.35;0.35;;;;;;;8.08;100.00;101801.00;4996024;28;20053;-85
2021/12/13 08:10:52;;;;;;;0.40;0.40;;;;;;;8.16;100.00;101806.09;4994914;28;20042;-87
2021/12/13 08:13:28;;;;;;;0.40;0.40;;;;;;;8.14;100.00;101811.75;5007972;28;20062;-85
2021/12/13 08:16:00;;;;;;;0.50;0.50;;;;;;;8.16;100.00;101814.22;4999340;28;20046;-86
2021/12/13 08:18:36;;;;;;;0.32;0.32;;;;;;;8.12;100.00;101808.47;4993020;28;20077;-86
2021/12/13 08:21:13;;;;;;;0.40;0.40;;;;;;;8.17;100.00;101805.03;4992427;28;20046;-84
2021/12/13 08:23:48;;;;;;;0.40;0.40;;;;;;;8.16;100.00;101822.34;5010323;28;20057;-85
2021/12/13 08:26:30;;;;;;;0.30;0.30;;;;;;;8.15;100.00;101816.13;5028056;28;20450;-84
2021/12/13 08:29:09;;;;;;;0.30;0.30;;;;;;;8.16;100.00;101822.34;4986111;28;20047;-85
2021/12/13 08:31:46;;;;;;;0.28;0.28;;;;;;;8.28;100.00;101822.38;4984897;28;20051;-86
2021/12/13 08:34:24;;;;;;;0.30;0.30;;;;;;;8.22;100.00;101823.31;4994370;28;20407;-87
2021/12/13 08:36:58;;;;;;;0.30;0.30;;;;;;;8.27;100.00;101826.97;4987970;28;20049;-85
2021/12/13 08:39:35;;;;;;;0.30;0.30;;;;;;;8.35;100.00;101825.78;5002821;28;20058;-85
2021/12/13 08:42:13;;;;;;;0.30;0.30;;;;;;;8.33;100.00;101828.72;4989125;28;20403;-82
2021/12/13 08:44:44;;;;;;;0.35;0.35;;;;;;;8.34;100.00;101826.84;4990851;28;20050;-84
2021/12/13 08:47:21;;;;;;;0.30;0.30;;;;;;;8.34;100.00;101827.69;4988428;28;20038;-84
2021/12/13 08:49:58;;;;;;;0.25;0.25;;;;;;;8.37;100.00;101839.94;4987448;28;20562;-85
2021/12/13 08:52:37;;;;;;;0.40;0.40;;;;;;;8.31;100.00;101835.44;4990113;28;20051;-86
2021/12/13 08:55:15;;;;;;;0.22;0.22;;;;;;;8.33;100.00;101844.19;4986881;28;20320;-82
2021/12/13 08:57:52;;;;;;;0.20;0.20;;;;;;;8.34;100.00;101846.66;4982845;28;20050;-82
2021/12/13 09:00:45;;;;;;;0.20;0.20;;;;;;;8.38;100.00;101840.75;4981064;28;20042;-85
2021/12/13 09:03:29;;;;;;;0.22;0.22;;;;;;;8.41;100.00;101851.13;4981209;28;20089;-82
2021/12/13 09:06:11;;;;;;;0.25;0.25;;;;;;;8.48;100.00;101851.88;4975415;28;20050;-85
2021/12/13 09:08:43;;;;;;;0.20;0.20;;;;;;;8.58;100.00;101851.28;4983374;28;20515;-83
2021/12/13 09:11:24;;;;;;;0.30;0.30;;;;;;;8.44;100.00;101856.09;4971830;28;20046;-85
2021/12/13 09:13:58;;;;;;;0.20;0.20;;;;;;;8.45;100.00;101853.19;4968281;28;20163;-82
2021/12/13 09:16:44;;;;;;;0.20;0.20;;;;;;;8.51;100.00;101857.66;4964093;28;20062;-83
2021/12/13 09:19:22;;;;;;;0.30;0.30;;;;;;;8.56;100.00;101856.97;4962791;28;20108;-85
2021/12/13 09:22:02;;;;;;;0.30;0.30;;;;;;;8.55;100.00;101868.88;4963527;28;20042;-84
2021/12/13 09:24:41;;;;;;;0.20;0.20;;;;;;;8.62;100.00;101863.31;4965496;28;20050;-82
2021/12/13 09:27:24;;;;;;;0.30;0.30;;;;;;;8.58;100.00;101864.84;4971389;28;20050;-84
2021/12/13 09:30:00;;;;;;;0.20;0.20;;;;;;;8.62;100.00;101866.03;4966604;28;20954;-84
2021/12/13 09:32:38;;;;;;;0.20;0.20;;;;;;;8.67;100.00;101857.97;4966782;28;20058;-85
2021/12/13 09:35:27;;;;;;;0.30;0.30;;;;;;;8.64;100.00;101867.41;4979186;28;20081;-87
2021/12/13 09:37:59;;;;;;;0.35;0.30;;;;;;;8.68;100.00;101856.94;4977956;28;20066;-83
2021/12/13 09:40:33;;;;;;;0.13;0.13;;;;;;;8.75;100.00;101862.22;4970770;28;20394;-85
2021/12/13 09:43:07;;;;;;;0.20;0.20;;;;;;;8.75;100.00;101856.81;4965681;28;20085;-84
2021/12/13 09:45:52;;;;;;;0.20;0.20;;;;;;;8.73;100.00;101854.34;4968823;28;20055;-83
2021/12/13 09:48:29;;;;;;;0.28;0.28;;;;;;;8.82;100.00;101852.91;4967851;28;20062;-85
2021/12/13 09:51:01;;;;;;;0.30;0.30;;;;;;;8.81;100.00;101853.97;4982679;28;20066;-82
2021/12/13 09:53:38;;;;;;;0.20;0.20;;;;;;;8.88;100.00;101847.56;4970644;28;20073;-82
2021/12/13 09:56:16;;;;;;;0.20;0.20;;;;;;;8.98;100.00;101851.31;4977497;28;20061;-84
2021/12/13 09:58:51;;;;;;;;;;;;;;;8.98;100.00;101850.50;4969142;28;20414;-84
2021/12/13 10:01:30;;;;;;;0.25;0.25;;;;;;;9.00;100.00;101851.91;4970059;28;19940;-85
2021/12/13 10:04:08;;;;;;;0.20;0.20;;;;;;;8.99;100.00;101846.69;4972166;28;20812;-83
2021/12/13 10:06:45;;;;;;;0.30;0.30;;;;;;;8.92;100.00;101852.28;4974735;28;20518;-83
2021/12/13 10:09:19;;;;;;;0.20;0.20;;;;;;;8.96;100.00;101850.75;4978578;28;20059;-82
2021/12/13 10:11:56;;;;;;;0.30;0.30;;;;;;;9.00;100.00;101861.94;4965211;28;20057;-83
2021/12/13 10:14:34;;;;;;;0.30;0.30;;;;;;;8.97;100.00;101857.00;4962323;28;20065;-84
2021/12/13 10:17:12;;;;;;;0.30;0.30;;;;;;;8.93;100.00;101853.91;4964725;28;20116;-83
2021/12/13 10:19:51;;;;;;;0.30;0.30;;;;;;;9.02;100.00;101862.53;4966329;28;20065;-82
2021/12/13 10:22:28;;;;;;;0.20;0.20;;;;;;;9.17;100.00;101851.97;4972250;28;20053;-83
2021/12/13 10:25:01;;;;;;;0.20;0.20;;;;;;;9.13;100.00;101856.25;4973095;28;20533;-81
2021/12/13 10:27:34;;;;;;;0.20;0.20;;;;;;;9.10;100.00;101858.59;4965720;28;20076;-83
2021/12/13 10:30:14;;;;;;;0.25;0.25;;;;;;;9.08;100.00;101864.28;4965332;28;20050;-82
2021/12/13 10:32:49;;;;;;;0.25;0.25;;;;;;;9.06;100.00;101860.16;4971439;28;20046;-82
2021/12/13 10:35:25;;;;;;;0.20;0.20;;;;;;;9.06;100.00;101858.28;4963919;28;20138;-82
2021/12/13 10:38:05;;;;;;;0.20;0.20;;;;;;;9.10;100.00;101861.31;4969428;28;20058;-83
2021/12/13 10:40:43;;;;;;;0.30;0.30;;;;;;;9.14;100.00;101860.63;4979361;28;20399;-83
2021/12/13 10:43:19;;;;;;;0.20;0.20;;;;;;;9.06;100.00;101865.56;4966864;28;21675;-81
2021/12/13 10:45:50;;;;;;;0.30;0.30;;;;;;;9.14;100.00;101855.19;4974348;28;20050;-83
2021/12/13 10:48:30;;;;;;;0.30;0.30;;;;;;;9.13;100.00;101860.84;4963860;28;20066;-83
2021/12/13 10:51:07;;;;;;;0.20;0.20;;;;;;;9.19;100.00;101862.59;4967007;28;20057;-82
2021/12/13 10:53:43;;;;;;;0.20;0.20;;;;;;;9.19;100.00;101863.41;4963132;28;20053;-81
2021/12/13 10:56:15;;;;;;;0.30;0.30;;;;;;;9.17;100.00;101854.69;4963279;28;20057;-82
2021/12/13 10:58:45;;;;;;;0.25;0.25;;;;;;;9.18;100.00;101860.94;4967189;28;20050;-83
2021/12/13 11:01:22;;;;;;;0.20;0.20;;;;;;;9.19;100.00;101868.84;4968135;28;20066;-82
2021/12/13 11:04:02;;;;;;;0.30;0.30;;;;;;;9.22;100.00;101864.00;4964457;28;20124;-82
2021/12/13 11:06:39;;;;;;;0.20;0.20;;;;;;;9.20;100.00;101864.25;4964680;28;20050;-81
2021/12/13 11:09:19;;;;;;;0.20;0.20;;;;;;;9.26;100.00;101859.75;4961658;28;20755;-80
2021/12/13 11:11:50;;;;;;;0.20;0.20;;;;;;;9.25;100.00;101872.47;4962545;28;20054;-81
2021/12/13 11:14:25;;;;;;;0.30;0.30;;;;;;;9.27;100.00;101861.41;4961296;28;20396;-83
2021/12/13 11:16:56;;;;;;;0.20;0.20;;;;;;;9.28;100.00;101863.88;4962481;28;20050;-82
2021/12/13 11:19:34;;;;;;;0.20;0.20;;;;;;;9.32;100.00;101856.88;4968160;28;20054;-83
2021/12/13 11:22:11;;;;;;;0.25;0.25;;;;;;;9.27;100.00;101866.84;4965142;28;20055;-82
2021/12/13 11:24:49;;;;;;;0.20;0.20;;;;;;;9.32;100.00;101865.03;4969789;28;20047;-84
2021/12/13 11:27:26;;;;;;;0.25;0.25;;;;;;;9.24;100.00;101861.84;4959353;28;20073;-83
2021/12/13 11:30:05;;;;;;;0.20;0.20;;;;;;;9.27;100.00;101870.34;4967691;28;20058;-83
2021/12/13 11:33:06;;;;;;;0.20;0.20;;;;;;;9.27;100.00;101864.13;4965120;28;20478;-83
2021/12/13 11:36:11;;;;;;;0.20;0.20;;;;;;;9.31;100.00;101865.28;4966816;28;20054;-86
2021/12/13 11:39:14;;;;;;;0.30;0.30;;;;;;;9.35;100.00;101864.53;4969527;28;20042;-87
2021/12/13 11:42:25;;;;;;;0.20;0.20;;;;;;;9.34;100.00;101864.78;4967554;28;20054;-84
2021/12/13 11:45:10;;;;;;;0.25;0.25;;;;;;;9.36;100.00;101855.34;4994768;28;20047;-85
2021/12/13 11:48:06;;;;;;;0.20;0.20;;;;;;;9.34;100.00;101846.59;4976674;28;20057;-82
2021/12/13 11:51:28;;;;;;;0.20;0.20;;;;;;;9.30;100.00;101852.75;4963493;28;20042;-83
2021/12/13 11:54:43;;;;;;;0.20;0.20;;;;;;;9.36;100.00;101849.91;4962470;28;20055;-83
2021/12/13 11:57:43;;;;;;;0.20;0.20;;;;;;;9.37;100.00;101853.44;4975477;28;20700;-85
2021/12/13 12:00:32;;;;;;;0.25;0.25;;;;;;;9.33;100.00;101844.13;4962291;28;20410;-84
2021/12/13 12:03:48;;;;;;;0.20;0.20;;;;;;;9.28;100.00;101853.00;4966753;28;20065;-84
2021/12/13 12:07:04;;;;;;;0.30;0.30;;;;;;;9.26;100.00;101846.16;4963492;28;20399;-84
2021/12/13 12:10:20;;;;;;;0.30;0.30;;;;;;;9.26;100.00;101841.53;4973732;28;20058;-84
2021/12/13 12:13:04;;;;;;;0.20;0.20;;;;;;;9.21;100.00;101829.75;4949378;28;20062;-82
2021/12/13 12:15:40;;;;;;;0.20;0.20;;;;;;;9.20;100.00;101837.09;4964244;28;20054;-83
2021/12/13 12:18:20;;;;;;;0.20;0.20;;;;;;;9.20;100.00;101837.09;4965073;28;20065;-81
2021/12/13 12:21:32;;;;;;;0.30;0.30;;;;;;;9.18;100.00;101834.63;4973833;28;20054;-85
2021/12/13 12:24:03;;;;;;;0.30;0.30;;;;;;;9.21;100.00;101846.06;4978815;28;20053;-80
2021/12/13 12:26:39;;;;;;;0.20;0.20;;;;;;;9.17;100.00;101838.41;4970170;28;20062;-82